sensor_id;sensor_type;location;lat;lon;timestamp;pressure;altitude;pressure_sealevel;temperature;humidity
38225;BME280;24025;48.138;11.428;2023-04-28T00:02:16;95500.84;;;9.07;74.62
38225;BME280;24025;48.138;11.428;2023-04-28T00:05:36;95496.50;;;8.99;74.65
38225;BME280;24025;48.138;11.428;2023-04-28T00:08:58;95498.81;;;9.01;74.61
38225;BME280;24025;48.138;11.428;2023-04-28T00:12:19;95481.31;;;9.00;75.14
38225;BME280;24025;48.138;11.428;2023-04-28T00:16:06;95490.81;;;9.01;74.74
38225;BME280;24025;48.138;11.428;2023-04-28T00:19:28;95487.19;;;9.09;74.47
38225;BME280;24025;48.138;11.428;2023-04-28T00:22:48;95478.78;;;9.07;74.30
38225;BME280;24025;48.138;11.428;2023-04-28T00:26:10;95470.44;;;9.08;74.67
38225;BME280;24025;48.138;11.428;2023-04-28T00:29:32;95469.69;;;9.08;75.00
38225;BME280;24025;48.138;11.428;2023-04-28T00:32:54;95468.16;;;9.07;74.58
38225;BME280;24025;48.138;11.428;2023-04-28T00:36:16;95464.81;;;9.10;74.70
38225;BME280;24025;48.138;11.428;2023-04-28T00:39:37;95462.84;;;9.07;74.98
38225;BME280;24025;48.138;11.428;2023-04-28T00:42:58;95464.81;;;9.10;74.86
38225;BME280;24025;48.138;11.428;2023-04-28T00:46:21;95467.09;;;9.12;74.56
38225;BME280;24025;48.138;11.428;2023-04-28T00:49:42;95460.66;;;9.13;74.84
38225;BME280;24025;48.138;11.428;2023-04-28T00:53:03;95458.81;;;9.17;74.86
38225;BME280;24025;48.138;11.428;2023-04-28T00:56:24;95461.88;;;9.19;75.03
38225;BME280;24025;48.138;11.428;2023-04-28T00:59:44;95462.59;;;9.16;75.39
38225;BME280;24025;48.138;11.428;2023-04-28T01:03:05;95460.03;;;9.19;74.93
38225;BME280;24025;48.138;11.428;2023-04-28T01:06:26;95457.78;;;9.21;75.13
38225;BME280;24025;48.138;11.428;2023-04-28T01:09:48;95455.16;;;9.25;74.71
38225;BME280;24025;48.138;11.428;2023-04-28T01:13:09;95454.47;;;9.28;75.23
38225;BME280;24025;48.138;11.428;2023-04-28T01:16:30;95454.50;;;9.31;74.94
38225;BME280;24025;48.138;11.428;2023-04-28T01:19:52;95438.13;;;9.29;74.75
38225;BME280;24025;48.138;11.428;2023-04-28T01:23:14;95427.13;;;9.31;74.80
38225;BME280;24025;48.138;11.428;2023-04-28T01:26:35;95422.88;;;9.26;75.04
38225;BME280;24025;48.138;11.428;2023-04-28T01:29:57;95415.59;;;9.23;75.53
38225;BME280;24025;48.138;11.428;2023-04-28T01:33:18;95412.13;;;9.19;75.75
38225;BME280;24025;48.138;11.428;2023-04-28T01:36:39;95420.13;;;9.19;76.06
38225;BME280;24025;48.138;11.428;2023-04-28T01:40:00;95415.97;;;9.22;75.82
38225;BME280;24025;48.138;11.428;2023-04-28T01:43:21;95419.03;;;9.24;75.42
38225;BME280;24025;48.138;11.428;2023-04-28T01:46:42;95429.28;;;9.22;76.05
38225;BME280;24025;48.138;11.428;2023-04-28T01:50:03;95417.97;;;9.28;75.38
38225;BME280;24025;48.138;11.428;2023-04-28T01:53:24;95406.63;;;9.31;75.66
38225;BME280;24025;48.138;11.428;2023-04-28T01:56:45;95416.53;;;9.34;75.04
38225;BME280;24025;48.138;11.428;2023-04-28T02:00:07;95418.44;;;9.34;75.26
38225;BME280;24025;48.138;11.428;2023-04-28T02:03:28;95431.34;;;9.32;75.06
38225;BME280;24025;48.138;11.428;2023-04-28T02:06:49;95439.31;;;9.32;75.62
38225;BME280;24025;48.138;11.428;2023-04-28T02:10:10;95440.44;;;9.31;75.67
38225;BME280;24025;48.138;11.428;2023-04-28T02:13:32;95442.47;;;9.38;75.17
38225;BME280;24025;48.138;11.428;2023-04-28T02:16:53;95437.53;;;9.40;75.08
38225;BME280;24025;48.138;11.428;2023-04-28T02:20:14;95432.22;;;9.40;76.42
38225;BME280;24025;48.138;11.428;2023-04-28T02:23:35;95425.81;;;9.44;77.46
38225;BME280;24025;48.138;11.428;2023-04-28T02:26:56;95431.13;;;9.44;77.26
38225;BME280;24025;48.138;11.428;2023-04-28T02:30:17;95433.38;;;9.42;77.00
38225;BME280;24025;48.138;11.428;2023-04-28T02:33:38;95435.69;;;9.44;77.97
38225;BME280;24025;48.138;11.428;2023-04-28T02:36:59;95436.06;;;9.42;78.20
38225;BME280;24025;48.138;11.428;2023-04-28T02:40:21;95413.94;;;9.38;79.49
38225;BME280;24025;48.138;11.428;2023-04-28T02:43:42;95406.31;;;9.36;79.00
38225;BME280;24025;48.138;11.428;2023-04-28T02:47:04;95388.09;;;9.39;79.62
38225;BME280;24025;48.138;11.428;2023-04-28T02:50:25;95385.09;;;9.40;80.71
38225;BME280;24025;48.138;11.428;2023-04-28T02:53:46;95390.41;;;9.40;80.88
38225;BME280;24025;48.138;11.428;2023-04-28T07:29:37;95337.09;;;12.32;76.66
38225;BME280;24025;48.138;11.428;2023-04-28T07:32:08;95342.06;;;12.30;75.58
38225;BME280;24025;48.138;11.428;2023-04-28T07:34:41;95326.00;;;12.34;76.30
38225;BME280;24025;48.138;11.428;2023-04-28T07:37:12;95329.84;;;12.36;76.15
38225;BME280;24025;48.138;11.428;2023-04-28T07:39:44;95342.09;;;12.41;76.84
38225;BME280;24025;48.138;11.428;2023-04-28T07:42:15;95339.75;;;12.36;75.75
38225;BME280;24025;48.138;11.428;2023-04-28T07:44:47;95341.28;;;12.30;76.55
38225;BME280;24025;48.138;11.428;2023-04-28T07:47:19;95343.59;;;12.31;75.88
38225;BME280;24025;48.138;11.428;2023-04-28T07:49:50;95350.41;;;12.11;76.24
38225;BME280;24025;48.138;11.428;2023-04-28T07:52:22;95362.63;;;12.19;76.27
38225;BME280;24025;48.138;11.428;2023-04-28T07:54:54;95351.94;;;12.12;76.83
38225;BME280;24025;48.138;11.428;2023-04-28T07:57:25;95358.03;;;12.12;77.96
38225;BME280;24025;48.138;11.428;2023-04-28T07:59:57;95362.16;;;11.99;77.49
38225;BME280;24025;48.138;11.428;2023-04-28T08:02:28;95360.25;;;12.00;79.65
38225;BME280;24025;48.138;11.428;2023-04-28T08:05:00;95350.66;;;11.91;80.65
38225;BME280;24025;48.138;11.428;2023-04-28T08:07:32;95357.19;;;12.01;81.04
38225;BME280;24025;48.138;11.428;2023-04-28T08:10:04;95355.31;;;12.05;80.30
38225;BME280;24025;48.138;11.428;2023-04-28T08:12:36;95351.88;;;12.08;81.51
38225;BME280;24025;48.138;11.428;2023-04-28T08:15:08;95359.91;;;12.08;82.02
38225;BME280;24025;48.138;11.428;2023-04-28T08:17:40;95354.97;;;12.10;82.48
38225;BME280;24025;48.138;11.428;2023-04-28T08:20:12;95350.38;;;12.07;82.25
38225;BME280;24025;48.138;11.428;2023-04-28T08:22:45;95343.06;;;11.97;81.73
38225;BME280;24025;48.138;11.428;2023-04-28T08:25:17;95336.19;;;11.96;81.92
38225;BME280;24025;48.138;11.428;2023-04-28T08:27:48;95329.66;;;11.90;81.94
38225;BME280;24025;48.138;11.428;2023-04-28T08:30:20;95321.66;;;11.90;82.13
38225;BME280;24025;48.138;11.428;2023-04-28T08:32:52;95319.75;;;11.90;82.43
38225;BME280;24025;48.138;11.428;2023-04-28T08:35:24;95321.69;;;11.94;83.71
38225;BME280;24025;48.138;11.428;2023-04-28T08:37:56;95323.97;;;11.95;84.03
38225;BME280;24025;48.138;11.428;2023-04-28T08:40:32;95324.38;;;12.01;84.30
38225;BME280;24025;48.138;11.428;2023-04-28T08:43:04;95312.19;;;12.07;83.80
38225;BME280;24025;48.138;11.428;2023-04-28T08:45:41;95318.31;;;12.11;84.04
38225;BME280;24025;48.138;11.428;2023-04-28T08:48:20;95316.03;;;12.16;84.47
38225;BME280;24025;48.138;11.428;2023-04-28T08:50:53;95312.97;;;12.18;82.88
38225;BME280;24025;48.138;11.428;2023-04-28T08:53:26;95309.53;;;12.17;82.45
38225;BME280;24025;48.138;11.428;2023-04-28T08:55:58;95314.53;;;12.23;82.11
38225;BME280;24025;48.138;11.428;2023-04-28T08:58:30;95311.88;;;12.33;81.90
38225;BME280;24025;48.138;11.428;2023-04-28T09:01:01;95314.19;;;12.42;81.86
38225;BME280;24025;48.138;11.428;2023-04-28T09:03:35;95317.66;;;12.53;82.13
38225;BME280;24025;48.138;11.428;2023-04-28T09:06:06;95315.03;;;12.64;82.31
38225;BME280;24025;48.138;11.428;2023-04-28T09:08:38;95319.59;;;12.70;82.09
38225;BME280;24025;48.138;11.428;2023-04-28T09:11:10;95318.44;;;12.71;80.69
38225;BME280;24025;48.138;11.428;2023-04-28T09:13:43;95315.38;;;12.69;80.06
38225;BME280;24025;48.138;11.428;2023-04-28T09:16:15;95314.63;;;12.65;80.44
38225;BME280;24025;48.138;11.428;2023-04-28T09:18:56;95306.59;;;12.58;80.97
38225;BME280;24025;48.138;11.428;2023-04-28T09:21:28;95308.09;;;12.52;81.35
38225;BME280;24025;48.138;11.428;2023-04-28T09:24:00;95309.25;;;12.47;82.29
38225;BME280;24025;48.138;11.428;2023-04-28T09:26:48;95300.03;;;12.34;83.49
38225;BME280;24025;48.138;11.428;2023-04-28T09:29:22;95311.09;;;12.22;83.62
38225;BME280;24025;48.138;11.428;2023-04-28T09:32:14;95312.56;;;12.09;85.73
38225;BME280;24025;48.138;11.428;2023-04-28T09:34:48;95305.28;;;11.95;87.29
38225;BME280;24025;48.138;11.428;2023-04-28T09:37:25;95302.56;;;11.91;88.60
38225;BME280;24025;48.138;11.428;2023-04-28T09:40:09;95301.44;;;11.93;88.45
38225;BME280;24025;48.138;11.428;2023-04-28T09:42:42;95295.72;;;11.98;88.39
38225;BME280;24025;48.138;11.428;2023-04-28T09:45:15;95285.44;;;11.96;88.33
38225;BME280;24025;48.138;11.428;2023-04-28T09:47:47;95288.13;;;12.07;88.55
38225;BME280;24025;48.138;11.428;2023-04-28T09:50:19;95281.66;;;12.18;87.98
38225;BME280;24025;48.138;11.428;2023-04-28T09:52:59;95288.59;;;12.30;87.17
38225;BME280;24025;48.138;11.428;2023-04-28T09:55:35;95285.53;;;12.32;88.21
38225;BME280;24025;48.138;11.428;2023-04-28T09:58:10;95292.03;;;12.34;87.32
38225;BME280;24025;48.138;11.428;2023-04-28T10:00:49;95289.72;;;12.33;88.02
38225;BME280;24025;48.138;11.428;2023-04-28T10:03:26;95284.75;;;12.31;87.42
38225;BME280;24025;48.138;11.428;2023-04-28T10:06:00;95292.00;;;12.27;88.22
38225;BME280;24025;48.138;11.428;2023-04-28T10:08:32;95290.09;;;12.21;88.56
38225;BME280;24025;48.138;11.428;2023-04-28T10:11:04;95280.13;;;12.17;89.36
38225;BME280;24025;48.138;11.428;2023-04-28T10:13:36;95284.72;;;12.17;89.92
38225;BME280;24025;48.138;11.428;2023-04-28T10:16:09;95284.34;;;12.15;90.71
38225;BME280;24025;48.138;11.428;2023-04-28T10:18:42;95287.41;;;12.13;91.45
38225;BME280;24025;48.138;11.428;2023-04-28T10:21:17;95283.94;;;12.02;92.46
38225;BME280;24025;48.138;11.428;2023-04-28T10:24:14;95278.97;;;12.08;92.98
38225;BME280;24025;48.138;11.428;2023-04-28T10:29:36;95278.94;;;11.97;95.52
38225;BME280;24025;48.138;11.428;2023-04-28T10:32:18;95271.34;;;12.06;94.55
38225;BME280;24025;48.138;11.428;2023-04-28T10:34:50;95279.38;;;12.13;94.11
38225;BME280;24025;48.138;11.428;2023-04-28T10:40:34;95277.06;;;12.05;94.50
38225;BME280;24025;48.138;11.428;2023-04-28T10:43:08;95280.91;;;12.11;94.34
38225;BME280;24025;48.138;11.428;2023-04-28T10:58:54;95274.84;;;12.39;93.31
38225;BME280;24025;48.138;11.428;2023-04-28T11:01:28;95273.69;;;12.36;93.08
38225;BME280;24025;48.138;11.428;2023-04-28T11:04:06;95271.41;;;12.38;92.61
38225;BME280;24025;48.138;11.428;2023-04-28T11:06:43;95280.19;;;12.35;94.16
38225;BME280;24025;48.138;11.428;2023-04-28T11:14:35;95278.06;;;11.79;97.57
38225;BME280;24025;48.138;11.428;2023-04-28T11:17:08;95270.88;;;11.86;97.38
38225;BME280;24025;48.138;11.428;2023-04-28T11:19:44;95275.47;;;11.89;96.80
38225;BME280;24025;48.138;11.428;2023-04-28T11:22:20;95264.41;;;11.91;96.65
38225;BME280;24025;48.138;11.428;2023-04-28T11:25:00;95260.56;;;11.81;97.11
38225;BME280;24025;48.138;11.428;2023-04-28T11:27:34;95278.53;;;11.91;96.46
38225;BME280;24025;48.138;11.428;2023-04-28T11:30:21;95283.88;;;11.91;96.97
38225;BME280;24025;48.138;11.428;2023-04-28T11:32:53;95285.41;;;11.93;97.13
38225;BME280;24025;48.138;11.428;2023-04-28T11:35:39;95276.69;;;12.06;96.14
38225;BME280;24025;48.138;11.428;2023-04-28T11:38:11;95275.94;;;12.16;97.16
38225;BME280;24025;48.138;11.428;2023-04-28T11:40:55;95274.84;;;12.39;96.14
38225;BME280;24025;48.138;11.428;2023-04-28T11:43:28;95279.81;;;12.37;96.91
38225;BME280;24025;48.138;11.428;2023-04-28T11:46:18;95280.19;;;12.42;96.32
38225;BME280;24025;48.138;11.428;2023-04-28T11:49:03;95281.72;;;12.43;97.94
38225;BME280;24025;48.138;11.428;2023-04-28T11:51:37;95287.88;;;12.55;97.35
38225;BME280;24025;48.138;11.428;2023-04-28T11:54:25;95277.91;;;12.44;99.05
38225;BME280;24025;48.138;11.428;2023-04-28T11:56:58;95267.63;;;12.57;98.72
38225;BME280;24025;48.138;11.428;2023-04-28T11:59:34;95264.56;;;12.55;100.00
38225;BME280;24025;48.138;11.428;2023-04-28T12:02:06;95272.94;;;12.39;100.00
38225;BME280;24025;48.138;11.428;2023-04-28T12:04:41;95292.81;;;12.42;100.00
38225;BME280;24025;48.138;11.428;2023-04-28T12:07:16;95295.06;;;12.36;100.00
38225;BME280;24025;48.138;11.428;2023-04-28T12:10:11;95282.47;;;12.30;100.00
38225;BME280;24025;48.138;11.428;2023-04-28T12:12:43;95281.72;;;12.40;100.00
38225;BME280;24025;48.138;11.428;2023-04-28T12:15:23;95271.41;;;12.45;100.00
38225;BME280;24025;48.138;11.428;2023-04-28T12:18:08;95267.25;;;12.55;100.00
38225;BME280;24025;48.138;11.428;2023-04-28T12:20:40;95279.47;;;12.60;100.00
38225;BME280;24025;48.138;11.428;2023-04-28T12:23:13;95279.06;;;12.54;100.00
38225;BME280;24025;48.138;11.428;2023-04-28T12:25:45;95284.78;;;12.53;99.65
38225;BME280;24025;48.138;11.428;2023-04-28T12:28:18;95284.81;;;12.56;100.00
38225;BME280;24025;48.138;11.428;2023-04-28T12:31:01;95289.78;;;12.65;100.00
38225;BME280;24025;48.138;11.428;2023-04-28T12:33:34;95294.00;;;12.84;100.00
38225;BME280;24025;48.138;11.428;2023-04-28T12:36:09;95295.91;;;12.87;100.00
38225;BME280;24025;48.138;11.428;2023-04-28T12:38:48;95300.50;;;12.86;100.00
38225;BME280;24025;48.138;11.428;2023-04-28T12:41:19;95298.59;;;12.87;100.00
38225;BME280;24025;48.138;11.428;2023-04-28T12:43:51;95301.66;;;13.03;99.41
38225;BME280;24025;48.138;11.428;2023-04-28T12:46:24;95297.03;;;13.14;100.00
38225;BME280;24025;48.138;11.428;2023-04-28T12:48:56;95298.22;;;13.10;98.41
38225;BME280;24025;48.138;11.428;2023-04-28T12:51:27;95307.00;;;13.14;98.27
38225;BME280;24025;48.138;11.428;2023-04-28T12:54:00;95298.22;;;13.27;99.09
38225;BME280;24025;48.138;11.428;2023-04-28T12:56:32;95294.41;;;13.28;98.68
38225;BME280;24025;48.138;11.428;2023-04-28T12:59:04;95297.81;;;13.47;99.00
38225;BME280;24025;48.138;11.428;2023-04-28T13:01:36;95293.56;;;13.60;97.04
38225;BME280;24025;48.138;11.428;2023-04-28T13:04:08;95285.03;;;13.86;95.02
38225;BME280;24025;48.138;11.428;2023-04-28T13:06:40;95286.19;;;13.93;93.70
38225;BME280;24025;48.138;11.428;2023-04-28T13:09:14;95291.16;;;13.94;93.37
38225;BME280;24025;48.138;11.428;2023-04-28T13:11:46;95290.75;;;13.96;93.15
38225;BME280;24025;48.138;11.428;2023-04-28T13:14:19;95278.56;;;13.77;92.51
38225;BME280;24025;48.138;11.428;2023-04-28T13:16:51;95281.66;;;13.72;94.99
38225;BME280;24025;48.138;11.428;2023-04-28T13:19:22;95286.69;;;13.63;94.72
38225;BME280;24025;48.138;11.428;2023-04-28T13:21:54;95277.47;;;13.60;95.02
38225;BME280;24025;48.138;11.428;2023-04-28T13:24:26;95279.34;;;13.81;95.00
38225;BME280;24025;48.138;11.428;2023-04-28T13:26:59;95279.75;;;13.72;92.78
38225;BME280;24025;48.138;11.428;2023-04-28T13:29:30;95277.44;;;13.74;94.22
38225;BME280;24025;48.138;11.428;2023-04-28T13:32:02;95273.19;;;13.84;92.99
38225;BME280;24025;48.138;11.428;2023-04-28T13:34:34;95266.22;;;14.01;93.43
38225;BME280;24025;48.138;11.428;2023-04-28T13:37:07;95266.91;;;14.19;91.86
38225;BME280;24025;48.138;11.428;2023-04-28T13:39:39;95269.59;;;14.19;90.93
38225;BME280;24025;48.138;11.428;2023-04-28T13:42:11;95269.13;;;14.35;90.87
38225;BME280;24025;48.138;11.428;2023-04-28T13:44:43;95268.28;;;14.49;89.39
38225;BME280;24025;48.138;11.428;2023-04-28T13:47:15;95271.69;;;14.60;90.00
38225;BME280;24025;48.138;11.428;2023-04-28T13:49:46;95268.97;;;14.63;88.40
38225;BME280;24025;48.138;11.428;2023-04-28T13:52:21;95265.38;;;14.81;87.94
38225;BME280;24025;48.138;11.428;2023-04-28T13:54:53;95273.78;;;14.86;87.57
38225;BME280;24025;48.138;11.428;2023-04-28T13:57:25;95264.53;;;14.91;85.05
38225;BME280;24025;48.138;11.428;2023-04-28T13:59:56;95265.34;;;14.88;86.06
38225;BME280;24025;48.138;11.428;2023-04-28T14:02:28;95256.13;;;14.89;86.79
38225;BME280;24025;48.138;11.428;2023-04-28T14:05:00;95253.31;;;15.03;86.20
38225;BME280;24025;48.138;11.428;2023-04-28T14:07:31;95256.53;;;14.87;85.49
38225;BME280;24025;48.138;11.428;2023-04-28T14:10:03;95263.31;;;14.99;85.51
38225;BME280;24025;48.138;11.428;2023-04-28T14:12:35;95256.84;;;14.93;85.46
38225;BME280;24025;48.138;11.428;2023-04-28T14:15:07;95256.97;;;14.79;86.99
38225;BME280;24025;48.138;11.428;2023-04-28T14:17:39;95253.47;;;14.82;86.71
38225;BME280;24025;48.138;11.428;2023-04-28T14:20:10;95251.41;;;14.52;85.82
38225;BME280;24025;48.138;11.428;2023-04-28T14:22:43;95246.22;;;14.23;85.96
38225;BME280;24025;48.138;11.428;2023-04-28T14:25:15;95248.13;;;14.23;87.70
38225;BME280;24025;48.138;11.428;2023-04-28T14:27:48;95251.59;;;14.12;88.84
38225;BME280;24025;48.138;11.428;2023-04-28T14:30:21;95246.19;;;14.27;89.90
38225;BME280;24025;48.138;11.428;2023-04-28T14:32:52;95241.53;;;14.31;90.34
38225;BME280;24025;48.138;11.428;2023-04-28T14:35:24;95246.53;;;14.29;90.16
38225;BME280;24025;48.138;11.428;2023-04-28T14:37:55;95245.78;;;14.28;90.52
38225;BME280;24025;48.138;11.428;2023-04-28T14:40:27;95235.81;;;14.29;90.83
38225;BME280;24025;48.138;11.428;2023-04-28T14:42:58;95240.44;;;14.25;92.20
38225;BME280;24025;48.138;11.428;2023-04-28T14:45:30;95235.44;;;14.27;91.52
38225;BME280;24025;48.138;11.428;2023-04-28T14:48:01;95229.34;;;14.19;90.13
38225;BME280;24025;48.138;11.428;2023-04-28T14:50:33;95237.84;;;14.10;91.66
38225;BME280;24025;48.138;11.428;2023-04-28T14:53:05;95229.47;;;14.05;90.05
38225;BME280;24025;48.138;11.428;2023-04-28T14:55:37;95226.41;;;13.96;91.16
38225;BME280;24025;48.138;11.428;2023-04-28T14:58:09;95229.06;;;14.03;91.67
38225;BME280;24025;48.138;11.428;2023-04-28T15:00:41;95228.66;;;14.08;91.52
38225;BME280;24025;48.138;11.428;2023-04-28T15:03:12;95234.75;;;14.12;91.78
38225;BME280;24025;48.138;11.428;2023-04-28T15:05:44;95233.25;;;14.04;92.11
38225;BME280;24025;48.138;11.428;2023-04-28T15:08:16;95231.06;;;13.88;93.55
38225;BME280;24025;48.138;11.428;2023-04-28T15:10:47;95236.81;;;13.86;94.07
38225;BME280;24025;48.138;11.428;2023-04-28T15:13:19;95237.97;;;13.82;93.02
38225;BME280;24025;48.138;11.428;2023-04-28T15:15:52;95238.75;;;13.82;94.91
38225;BME280;24025;48.138;11.428;2023-04-28T15:18:24;95233.00;;;13.87;94.94
38225;BME280;24025;48.138;11.428;2023-04-28T15:20:55;95246.00;;;13.85;95.92
38225;BME280;24025;48.138;11.428;2023-04-28T15:23:27;95234.97;;;13.69;97.67
38225;BME280;24025;48.138;11.428;2023-04-28T15:25:58;95240.28;;;13.76;98.16
38225;BME280;24025;48.138;11.428;2023-04-28T15:28:30;95240.69;;;13.75;98.39
38225;BME280;24025;48.138;11.428;2023-04-28T15:31:02;95248.34;;;13.76;99.10
38225;BME280;24025;48.138;11.428;2023-04-28T15:33:35;95230.75;;;13.68;99.28
38225;BME280;24025;48.138;11.428;2023-04-28T15:36:06;95232.69;;;13.64;99.15
38225;BME280;24025;48.138;11.428;2023-04-28T15:38:38;95233.84;;;13.63;100.00
38225;BME280;24025;48.138;11.428;2023-04-28T15:41:12;95233.09;;;13.63;100.00
38225;BME280;24025;48.138;11.428;2023-04-28T15:43:44;95238.84;;;13.61;100.00
38225;BME280;24025;48.138;11.428;2023-04-28T15:46:16;95228.13;;;13.57;100.00
38225;BME280;24025;48.138;11.428;2023-04-28T15:48:48;95225.84;;;13.56;100.00
38225;BME280;24025;48.138;11.428;2023-04-28T15:51:20;95231.56;;;13.51;100.00
38225;BME280;24025;48.138;11.428;2023-04-28T15:53:52;95227.78;;;13.52;100.00
38225;BME280;24025;48.138;11.428;2023-04-28T15:56:25;95227.78;;;13.52;100.00
38225;BME280;24025;48.138;11.428;2023-04-28T15:58:58;95225.84;;;13.52;100.00
38225;BME280;24025;48.138;11.428;2023-04-28T16:01:29;95232.75;;;13.53;100.00
38225;BME280;24025;48.138;11.428;2023-04-28T16:04:01;95224.31;;;13.48;100.00
38225;BME280;24025;48.138;11.428;2023-04-28T16:06:33;95214.38;;;13.52;100.00
38225;BME280;24025;48.138;11.428;2023-04-28T16:09:05;95213.97;;;13.57;100.00
38225;BME280;24025;48.138;11.428;2023-04-28T16:11:36;95204.78;;;13.62;100.00
38225;BME280;24025;48.138;11.428;2023-04-28T16:14:08;95209.75;;;13.63;100.00
38225;BME280;24025;48.138;11.428;2023-04-28T16:16:40;95201.69;;;13.63;100.00
38225;BME280;24025;48.138;11.428;2023-04-28T16:19:11;95205.13;;;13.60;100.00
38225;BME280;24025;48.138;11.428;2023-04-28T16:21:46;95209.75;;;13.56;100.00
38225;BME280;24025;48.138;11.428;2023-04-28T16:24:17;95200.59;;;13.50;100.00
38225;BME280;24025;48.138;11.428;2023-04-28T16:26:49;95208.22;;;13.51;100.00
38225;BME280;24025;48.138;11.428;2023-04-28T16:29:21;95204.41;;;13.49;100.00
38225;BME280;24025;48.138;11.428;2023-04-28T16:31:53;95206.34;;;13.48;100.00
38225;BME280;24025;48.138;11.428;2023-04-28T16:34:25;95207.13;;;13.45;100.00
38225;BME280;24025;48.138;11.428;2023-04-28T16:36:58;95204.44;;;13.42;100.00
38225;BME280;24025;48.138;11.428;2023-04-28T16:39:30;95201.41;;;13.40;100.00
38225;BME280;24025;48.138;11.428;2023-04-28T16:42:02;95198.31;;;13.41;100.00
38225;BME280;24025;48.138;11.428;2023-04-28T16:44:35;95194.91;;;13.37;100.00
38225;BME280;24025;48.138;11.428;2023-04-28T16:47:07;95198.75;;;13.36;100.00
38225;BME280;24025;48.138;11.428;2023-04-28T16:49:38;95202.94;;;13.33;100.00
38225;BME280;24025;48.138;11.428;2023-04-28T16:52:10;95199.88;;;13.31;100.00
38225;BME280;24025;48.138;11.428;2023-04-28T16:54:42;95197.97;;;13.32;100.00
38225;BME280;24025;48.138;11.428;2023-04-28T16:57:13;95200.28;;;13.30;100.00
38225;BME280;24025;48.138;11.428;2023-04-28T16:59:45;95197.59;;;13.30;100.00
38225;BME280;24025;48.138;11.428;2023-04-28T17:02:16;95201.44;;;13.29;100.00
38225;BME280;24025;48.138;11.428;2023-04-28T17:04:49;95195.31;;;13.25;100.00
38225;BME280;24025;48.138;11.428;2023-04-28T17:07:21;95199.53;;;13.26;100.00
38225;BME280;24025;48.138;11.428;2023-04-28T17:09:55;95189.19;;;13.24;100.00
38225;BME280;24025;48.138;11.428;2023-04-28T17:12:27;95188.44;;;13.24;100.00
38225;BME280;24025;48.138;11.428;2023-04-28T17:14:58;95175.81;;;13.21;100.00
38225;BME280;24025;48.138;11.428;2023-04-28T17:17:30;95161.66;;;13.17;100.00
38225;BME280;24025;48.138;11.428;2023-04-28T17:20:03;95149.03;;;13.17;100.00
38225;BME280;24025;48.138;11.428;2023-04-28T17:22:35;95132.59;;;13.15;100.00
38225;BME280;24025;48.138;11.428;2023-04-28T17:25:07;95140.63;;;13.12;100.00
38225;BME280;24025;48.138;11.428;2023-04-28T17:27:38;95156.72;;;13.08;100.00
38225;BME280;24025;48.138;11.428;2023-04-28T17:30:10;95162.47;;;13.03;100.00
38225;BME280;24025;48.138;11.428;2023-04-28T17:32:42;95181.22;;;12.89;100.00
38225;BME280;24025;48.138;11.428;2023-04-28T17:35:13;95188.50;;;12.92;100.00
38225;BME280;24025;48.138;11.428;2023-04-28T17:37:45;95193.47;;;12.83;100.00
38225;BME280;24025;48.138;11.428;2023-04-28T17:40:17;95196.53;;;12.81;100.00
38225;BME280;24025;48.138;11.428;2023-04-28T17:42:54;95208.75;;;12.68;100.00
38225;BME280;24025;48.138;11.428;2023-04-28T17:45:26;95196.16;;;12.61;100.00
38225;BME280;24025;48.138;11.428;2023-04-28T17:47:58;95185.44;;;12.61;100.00
38225;BME280;24025;48.138;11.428;2023-04-28T17:50:33;95188.13;;;12.61;100.00
38225;BME280;24025;48.138;11.428;2023-04-28T17:53:05;95188.13;;;12.65;100.00
38225;BME280;24025;48.138;11.428;2023-04-28T17:55:37;95189.28;;;12.60;100.00
38225;BME280;24025;48.138;11.428;2023-04-28T17:58:08;95193.13;;;12.56;100.00
38225;BME280;24025;48.138;11.428;2023-04-28T18:00:40;95200.72;;;12.54;100.00
38225;BME280;24025;48.138;11.428;2023-04-28T18:03:12;95217.56;;;12.51;100.00
38225;BME280;24025;48.138;11.428;2023-04-28T18:05:44;95215.25;;;12.49;100.00
38225;BME280;24025;48.138;11.428;2023-04-28T18:08:15;95219.84;;;12.52;100.00
38225;BME280;24025;48.138;11.428;2023-04-28T18:10:47;95219.84;;;12.56;100.00
38225;BME280;24025;48.138;11.428;2023-04-28T18:13:19;95210.28;;;12.58;100.00
38225;BME280;24025;48.138;11.428;2023-04-28T18:15:50;95219.09;;;12.59;100.00
38225;BME280;24025;48.138;11.428;2023-04-28T18:18:23;95222.13;;;12.54;100.00
38225;BME280;24025;48.138;11.428;2023-04-28T18:20:58;95214.13;;;12.46;100.00
38225;BME280;24025;48.138;11.428;2023-04-28T18:23:31;95194.63;;;12.53;100.00
38225;BME280;24025;48.138;11.428;2023-04-28T18:26:03;95220.63;;;12.56;100.00
38225;BME280;24025;48.138;11.428;2023-04-28T18:28:35;95237.03;;;12.51;100.00
38225;BME280;24025;48.138;11.428;2023-04-28T18:31:06;95246.19;;;12.39;100.00
38225;BME280;24025;48.138;11.428;2023-04-28T18:33:39;95233.19;;;12.45;100.00
38225;BME280;24025;48.138;11.428;2023-04-28T18:36:10;95250.03;;;12.49;100.00
38225;BME280;24025;48.138;11.428;2023-04-28T18:38:42;95272.56;;;12.44;100.00
38225;BME280;24025;48.138;11.428;2023-04-28T18:41:16;95281.69;;;12.36;100.00
38225;BME280;24025;48.138;11.428;2023-04-28T18:43:48;95277.53;;;12.39;100.00
38225;BME280;24025;48.138;11.428;2023-04-28T18:46:19;95275.22;;;12.41;100.00
38225;BME280;24025;48.138;11.428;2023-04-28T18:48:52;95310.75;;;12.41;100.00
38225;BME280;24025;48.138;11.428;2023-04-28T18:51:23;95305.78;;;12.36;100.00
38225;BME280;24025;48.138;11.428;2023-04-28T18:53:55;95305.78;;;12.29;100.00
38225;BME280;24025;48.138;11.428;2023-04-28T18:56:29;95303.06;;;12.26;100.00
38225;BME280;24025;48.138;11.428;2023-04-28T18:59:02;95329.78;;;12.15;100.00